createdAt,value
2018-12-31T00:00:46.102Z,10.70
2018-12-31T00:01:46.087Z,10.00
2018-12-31T00:02:56.172Z,12.60
2018-12-31T00:03:46.098Z,12.00
2018-12-31T00:04:46.054Z,9.70
2018-12-31T00:05:46.043Z,12.60
2018-12-31T00:06:57.222Z,12.90
2018-12-31T00:07:46.021Z,12.40
2018-12-31T00:08:46.015Z,11.40
2018-12-31T00:09:46.022Z,10.00
2018-12-31T00:10:45.988Z,11.20
2018-12-31T00:11:45.975Z,10.30
2018-12-31T00:12:45.967Z,12.00
2018-12-31T00:13:45.952Z,13.10
2018-12-31T00:14:45.959Z,10.40
2018-12-31T00:15:45.934Z,12.60
2018-12-31T00:16:45.918Z,11.50
2018-12-31T00:17:45.913Z,9.80
2018-12-31T00:18:45.896Z,10.40
2018-12-31T00:19:45.915Z,13.00
2018-12-31T00:20:45.873Z,9.10
2018-12-31T00:21:45.862Z,15.60
2018-12-31T00:22:45.853Z,12.00
2018-12-31T00:23:45.842Z,10.60
2018-12-31T00:24:45.831Z,14.90
2018-12-31T00:25:45.860Z,10.40
2018-12-31T00:26:45.805Z,9.30
2018-12-31T00:27:45.795Z,9.90
2018-12-31T00:28:45.782Z,10.90
2018-12-31T00:29:45.771Z,11.60
2018-12-31T00:30:45.775Z,12.00
2018-12-31T00:31:45.747Z,12.80
2018-12-31T00:32:45.737Z,10.60
2018-12-31T00:33:45.727Z,11.30
2018-12-31T00:34:45.716Z,11.00
2018-12-31T00:35:45.741Z,10.40
2018-12-31T00:36:45.695Z,9.20
2018-12-31T00:37:45.680Z,8.60
2018-12-31T00:38:45.669Z,10.40
2018-12-31T00:39:45.658Z,10.70
2018-12-31T00:40:45.647Z,11.90
2018-12-31T00:41:45.654Z,11.80
2018-12-31T00:42:45.623Z,14.30
2018-12-31T00:43:45.613Z,12.20
2018-12-31T00:44:45.603Z,10.30
2018-12-31T00:45:45.590Z,14.70
2018-12-31T00:46:45.607Z,10.90
2018-12-31T00:47:45.567Z,10.00
2018-12-31T00:48:45.557Z,11.80
2018-12-31T00:49:45.544Z,10.10
2018-12-31T00:50:45.533Z,12.50
2018-12-31T00:51:45.551Z,11.00
2018-12-31T00:52:45.511Z,10.90
2018-12-31T00:53:45.501Z,12.30
2018-12-31T00:54:45.489Z,12.90
2018-12-31T00:55:45.481Z,9.10
2018-12-31T00:56:45.469Z,9.90
2018-12-31T00:57:45.469Z,12.90
2018-12-31T00:58:45.445Z,11.70
2018-12-31T00:59:45.504Z,10.40
2018-12-31T01:00:45.421Z,12.00
2018-12-31T01:01:45.408Z,11.20
2018-12-31T01:02:45.416Z,11.50
2018-12-31T01:03:45.385Z,11.70
2018-12-31T01:04:45.374Z,11.60
2018-12-31T01:05:45.363Z,16.50
2018-12-31T01:06:45.354Z,13.50
2018-12-31T01:07:45.373Z,12.40
2018-12-31T01:08:45.333Z,12.20
2018-12-31T01:09:45.360Z,11.90
2018-12-31T01:10:45.308Z,13.30
2018-12-31T01:11:45.319Z,12.70
2018-12-31T01:12:45.288Z,12.80
2018-12-31T01:13:45.291Z,11.10
2018-12-31T01:14:45.262Z,10.90
2018-12-31T01:15:45.254Z,11.90
2018-12-31T01:16:45.241Z,11.80
2018-12-31T01:17:45.233Z,12.40
2018-12-31T01:18:45.244Z,12.90
2018-12-31T01:19:45.729Z,11.10
2018-12-31T01:20:45.195Z,9.90
2018-12-31T01:21:45.185Z,10.20
2018-12-31T01:22:45.171Z,11.10
2018-12-31T01:23:45.188Z,12.50
2018-12-31T01:24:45.149Z,8.80
2018-12-31T01:25:45.137Z,13.90
2018-12-31T01:26:45.126Z,12.30
2018-12-31T01:27:45.117Z,11.30
2018-12-31T01:28:45.103Z,13.40
2018-12-31T01:29:45.112Z,10.10
2018-12-31T01:30:45.082Z,11.80
2018-12-31T01:31:45.073Z,13.10
2018-12-31T01:32:45.057Z,11.20
2018-12-31T01:33:45.049Z,12.20
2018-12-31T01:34:45.053Z,14.20
2018-12-31T01:35:45.083Z,10.80
2018-12-31T01:36:45.013Z,12.00
2018-12-31T01:37:45.000Z,11.40
2018-12-31T01:38:44.992Z,10.20
2018-12-31T01:39:45.007Z,11.40
2018-12-31T01:40:44.968Z,12.80
2018-12-31T01:41:44.956Z,14.20
2018-12-31T01:42:44.947Z,13.10
2018-12-31T01:43:44.934Z,14.00
2018-12-31T01:44:44.924Z,11.40
2018-12-31T01:45:44.927Z,13.10
2018-12-31T01:46:44.903Z,11.40
2018-12-31T01:47:44.967Z,13.50
2018-12-31T01:48:44.877Z,14.60
2018-12-31T01:49:44.866Z,14.60
2018-12-31T01:50:44.873Z,10.90
2018-12-31T01:51:44.848Z,10.30
2018-12-31T01:52:44.835Z,14.60
2018-12-31T01:53:44.820Z,12.60
2018-12-31T01:54:44.811Z,12.00
2018-12-31T01:55:44.826Z,11.80
2018-12-31T01:56:44.787Z,12.30
2018-12-31T01:57:44.776Z,10.80
2018-12-31T01:58:44.764Z,11.70
2018-12-31T01:59:44.755Z,8.90
2018-12-31T02:00:44.742Z,13.00
2018-12-31T02:01:44.757Z,10.20
2018-12-31T02:02:44.722Z,9.90
2018-12-31T02:03:44.708Z,10.60
2018-12-31T02:04:44.696Z,10.90
2018-12-31T02:05:44.684Z,10.90
2018-12-31T02:06:44.694Z,10.00
2018-12-31T02:07:44.662Z,9.70
2018-12-31T02:08:44.652Z,10.40
2018-12-31T02:09:44.646Z,8.40
2018-12-31T02:10:44.628Z,11.10
2018-12-31T02:11:44.645Z,11.80
2018-12-31T02:12:44.606Z,9.70
2018-12-31T02:13:44.596Z,8.80
2018-12-31T02:14:44.588Z,8.20
2018-12-31T02:15:44.579Z,9.70
2018-12-31T02:16:44.561Z,13.90
2018-12-31T02:17:44.567Z,10.60
2018-12-31T02:18:45.611Z,8.30
2018-12-31T02:19:44.527Z,10.40
2018-12-31T02:20:44.516Z,10.90
2018-12-31T02:21:44.505Z,11.50
2018-12-31T02:22:44.522Z,10.90
2018-12-31T02:23:44.482Z,12.80
2018-12-31T02:24:44.471Z,13.90
2018-12-31T02:25:44.460Z,12.00
2018-12-31T02:26:44.451Z,13.00
2018-12-31T02:27:44.466Z,9.30
2018-12-31T02:28:44.428Z,10.80
2018-12-31T02:29:44.416Z,11.10
2018-12-31T02:30:44.411Z,10.20
2018-12-31T02:31:44.395Z,11.20
2018-12-31T02:32:44.393Z,8.90
2018-12-31T02:33:44.392Z,9.80
2018-12-31T02:34:44.369Z,9.70
2018-12-31T02:35:44.348Z,10.00
2018-12-31T02:36:44.335Z,11.00
2018-12-31T02:37:44.325Z,9.30
2018-12-31T02:38:44.470Z,9.20
2018-12-31T02:39:44.302Z,8.60
2018-12-31T02:40:44.292Z,7.70
2018-12-31T02:41:44.279Z,9.90
2018-12-31T02:42:44.268Z,8.50
2018-12-31T02:43:44.291Z,9.70
2018-12-31T02:44:44.246Z,9.00
2018-12-31T02:45:44.244Z,9.20
2018-12-31T02:46:44.236Z,13.00
2018-12-31T02:47:44.215Z,11.20
2018-12-31T02:48:44.203Z,10.90
2018-12-31T02:49:44.209Z,12.00
2018-12-31T02:50:44.197Z,9.70
2018-12-31T02:51:44.169Z,13.20
2018-12-31T02:52:44.158Z,11.20
2018-12-31T02:53:44.151Z,11.70
2018-12-31T02:54:44.139Z,11.70
2018-12-31T02:55:44.158Z,9.20
2018-12-31T02:56:44.117Z,10.90
2018-12-31T02:57:44.104Z,11.80
2018-12-31T02:58:44.091Z,11.90
2018-12-31T02:59:44.079Z,10.50
2018-12-31T03:00:44.076Z,9.80
2018-12-31T03:01:44.077Z,12.10
2018-12-31T03:02:44.047Z,11.40
2018-12-31T03:03:44.036Z,13.70
2018-12-31T03:04:44.025Z,14.20
2018-12-31T03:05:44.012Z,9.70
2018-12-31T03:06:44.031Z,10.70
2018-12-31T03:07:43.992Z,12.50
2018-12-31T03:08:43.977Z,11.10
2018-12-31T03:09:43.969Z,12.30
2018-12-31T03:10:43.956Z,10.40
2018-12-31T03:11:43.948Z,11.30
2018-12-31T03:12:43.966Z,11.90
2018-12-31T03:13:43.921Z,14.60
2018-12-31T03:14:43.913Z,11.40
2018-12-31T03:15:43.901Z,11.50
2018-12-31T03:16:43.891Z,10.50
2018-12-31T03:17:43.879Z,12.60
2018-12-31T03:18:43.895Z,12.60
2018-12-31T03:19:43.861Z,10.30
2018-12-31T03:20:43.843Z,13.90
2018-12-31T03:21:43.832Z,11.00
2018-12-31T03:22:43.824Z,11.90
2018-12-31T03:23:43.810Z,10.80
2018-12-31T03:24:43.897Z,10.80
2018-12-31T03:25:43.787Z,13.30
2018-12-31T03:26:43.780Z,11.50
2018-12-31T03:27:43.767Z,10.50
2018-12-31T03:28:43.759Z,12.60
2018-12-31T03:29:43.767Z,12.70
2018-12-31T03:30:43.741Z,12.70
2018-12-31T03:31:43.867Z,12.50
2018-12-31T03:32:43.710Z,9.90
2018-12-31T03:33:43.698Z,12.50
2018-12-31T03:34:43.706Z,11.20
2018-12-31T03:35:43.677Z,10.50
2018-12-31T03:36:43.663Z,12.70
2018-12-31T03:37:43.659Z,14.60
2018-12-31T03:38:43.644Z,13.20
2018-12-31T03:39:43.649Z,14.60
2018-12-31T03:40:43.619Z,9.20
2018-12-31T03:41:43.613Z,11.10
2018-12-31T03:42:43.599Z,12.00
2018-12-31T03:43:43.586Z,11.50
2018-12-31T03:44:43.603Z,10.40
2018-12-31T03:45:43.567Z,11.70
2018-12-31T03:46:43.553Z,13.70
2018-12-31T03:47:43.544Z,13.80
2018-12-31T03:48:43.530Z,12.30
2018-12-31T03:49:43.523Z,14.20
2018-12-31T03:50:43.533Z,13.90
2018-12-31T03:51:43.495Z,10.80
2018-12-31T03:52:43.484Z,11.80
2018-12-31T03:53:43.473Z,13.20
2018-12-31T03:54:43.462Z,13.00
2018-12-31T03:55:43.450Z,9.30
2018-12-31T03:56:43.470Z,10.40
2018-12-31T03:57:43.431Z,11.50
2018-12-31T03:58:43.419Z,13.20
2018-12-31T03:59:43.409Z,11.90
2018-12-31T04:00:43.396Z,14.00
2018-12-31T04:01:43.384Z,13.40
2018-12-31T04:02:43.419Z,11.80
2018-12-31T04:03:43.362Z,12.00
2018-12-31T04:04:43.349Z,15.30
2018-12-31T04:05:43.338Z,12.10
2018-12-31T04:06:43.329Z,14.20
2018-12-31T04:07:43.316Z,14.20
2018-12-31T04:08:43.349Z,12.30
2018-12-31T04:09:43.324Z,12.80
2018-12-31T04:10:43.281Z,9.40
2018-12-31T04:11:43.270Z,11.80
2018-12-31T04:12:43.258Z,14.50
2018-12-31T04:13:43.248Z,11.80
2018-12-31T04:14:43.267Z,11.60
2018-12-31T04:15:43.228Z,11.60
2018-12-31T04:16:43.214Z,10.40
2018-12-31T04:17:43.213Z,11.40
2018-12-31T04:18:43.192Z,10.30
2018-12-31T04:19:43.183Z,14.20
2018-12-31T04:20:43.199Z,11.40
2018-12-31T04:21:43.157Z,12.40
2018-12-31T04:22:43.148Z,12.30
2018-12-31T04:23:43.136Z,13.10
2018-12-31T04:24:43.123Z,12.00
2018-12-31T04:25:43.112Z,12.20
2018-12-31T04:26:43.130Z,13.80
2018-12-31T04:27:43.090Z,12.20
2018-12-31T04:28:43.086Z,12.90
2018-12-31T04:29:43.068Z,13.00
2018-12-31T04:30:43.057Z,11.70
2018-12-31T04:31:43.048Z,14.40
2018-12-31T04:32:43.064Z,13.30
2018-12-31T04:33:43.023Z,12.00
2018-12-31T04:34:43.014Z,13.40
2018-12-31T04:35:43.000Z,11.40
2018-12-31T04:36:42.988Z,14.00
2018-12-31T04:37:42.976Z,14.00
2018-12-31T04:38:43.001Z,13.80
2018-12-31T04:39:42.956Z,14.30
2018-12-31T04:40:42.951Z,13.20
2018-12-31T04:41:42.938Z,15.10
2018-12-31T04:42:42.922Z,16.80
2018-12-31T04:43:42.912Z,14.80
2018-12-31T04:44:42.936Z,12.70
2018-12-31T04:45:42.893Z,15.60
2018-12-31T04:46:42.876Z,15.10
2018-12-31T04:47:42.868Z,12.80
2018-12-31T04:48:42.854Z,15.60
2018-12-31T04:49:42.858Z,15.30
2018-12-31T04:50:42.869Z,13.60
2018-12-31T04:51:42.824Z,14.70
2018-12-31T04:52:42.810Z,14.80
2018-12-31T04:53:42.799Z,17.50
2018-12-31T04:54:42.787Z,17.40
2018-12-31T04:55:44.570Z,15.50
2018-12-31T04:56:42.794Z,16.50
2018-12-31T04:57:42.753Z,14.00
2018-12-31T04:58:42.740Z,13.90
2018-12-31T04:59:42.730Z,17.30
2018-12-31T05:00:42.720Z,14.50
2018-12-31T05:01:42.709Z,14.60
2018-12-31T05:02:51.953Z,15.40
2018-12-31T05:03:42.683Z,19.50
2018-12-31T05:04:51.338Z,14.80
2018-12-31T05:05:42.661Z,18.60
2018-12-31T05:06:42.652Z,14.50
2018-12-31T05:07:42.642Z,16.10
2018-12-31T05:08:42.665Z,19.30
2018-12-31T05:09:42.621Z,17.30
2018-12-31T05:10:42.607Z,15.90
2018-12-31T05:11:42.597Z,19.80
2018-12-31T05:12:42.587Z,17.40
2018-12-31T05:13:42.574Z,17.60
2018-12-31T05:14:42.593Z,16.80
2018-12-31T05:15:42.552Z,19.30
2018-12-31T05:16:42.541Z,16.00
2018-12-31T05:17:42.528Z,18.10
2018-12-31T05:18:42.515Z,21.40
2018-12-31T05:19:42.510Z,14.20
2018-12-31T05:20:42.518Z,18.50
2018-12-31T05:21:42.503Z,16.80
2018-12-31T05:22:42.476Z,19.40
2018-12-31T05:23:42.462Z,19.20
2018-12-31T05:24:42.457Z,16.60
2018-12-31T05:25:42.469Z,17.70
2018-12-31T05:26:42.430Z,17.80
2018-12-31T05:27:42.418Z,18.50
2018-12-31T05:28:42.406Z,18.60
2018-12-31T05:29:42.395Z,18.90
2018-12-31T05:30:42.386Z,19.20
2018-12-31T05:31:42.404Z,19.20
2018-12-31T05:32:42.359Z,19.60
2018-12-31T05:33:42.352Z,19.10
2018-12-31T05:34:42.338Z,22.40
2018-12-31T05:35:42.329Z,21.60
2018-12-31T05:36:42.323Z,20.90
2018-12-31T05:37:42.322Z,22.00
2018-12-31T05:38:42.301Z,19.90
2018-12-31T05:39:42.284Z,20.10
2018-12-31T05:40:42.274Z,18.80
2018-12-31T05:41:42.260Z,20.10
2018-12-31T05:42:42.277Z,22.00
2018-12-31T05:43:42.243Z,20.40
2018-12-31T05:44:42.229Z,18.30
2018-12-31T05:45:42.218Z,21.90
2018-12-31T05:46:42.209Z,23.00
2018-12-31T05:47:42.195Z,20.30
2018-12-31T05:48:42.215Z,22.50
2018-12-31T05:49:42.172Z,18.60
2018-12-31T05:50:42.160Z,21.40
2018-12-31T05:51:42.148Z,18.20
2018-12-31T05:52:42.139Z,18.70
2018-12-31T05:53:42.136Z,19.10
2018-12-31T05:54:42.207Z,18.50
2018-12-31T05:55:42.117Z,21.60
2018-12-31T05:56:42.091Z,21.40
2018-12-31T05:57:42.082Z,20.00
2018-12-31T05:58:42.069Z,21.80
2018-12-31T05:59:42.061Z,20.10
2018-12-31T06:00:42.248Z,19.80
2018-12-31T06:01:42.045Z,19.40
2018-12-31T06:02:42.024Z,19.80
2018-12-31T06:03:42.013Z,19.00
2018-12-31T06:04:42.001Z,20.20
2018-12-31T06:05:42.017Z,19.30
2018-12-31T06:06:41.980Z,21.00
2018-12-31T06:07:41.970Z,20.30
2018-12-31T06:08:41.956Z,19.00
2018-12-31T06:09:41.949Z,18.60
2018-12-31T06:10:41.933Z,19.50
2018-12-31T06:11:41.954Z,19.00
2018-12-31T06:12:41.913Z,20.90
2018-12-31T06:13:41.898Z,19.50
2018-12-31T06:14:41.888Z,20.90
2018-12-31T06:15:41.876Z,20.10
2018-12-31T06:16:41.866Z,22.70
2018-12-31T06:17:41.872Z,19.90
2018-12-31T06:18:41.842Z,20.80
2018-12-31T06:19:41.831Z,18.10
2018-12-31T06:20:41.818Z,18.70
2018-12-31T06:21:41.810Z,21.80
2018-12-31T06:22:41.832Z,18.90
2018-12-31T06:23:41.788Z,19.40
2018-12-31T06:24:41.777Z,19.80
2018-12-31T06:25:41.764Z,23.20
2018-12-31T06:26:41.754Z,23.90
2018-12-31T06:27:41.745Z,18.40
2018-12-31T06:28:41.759Z,20.50
2018-12-31T06:29:41.722Z,18.60
2018-12-31T06:30:41.708Z,19.50
2018-12-31T06:31:41.695Z,18.20
2018-12-31T06:32:41.684Z,24.50
2018-12-31T06:33:41.673Z,22.40
2018-12-31T06:34:41.679Z,21.50
2018-12-31T06:35:41.652Z,24.30
2018-12-31T06:36:41.640Z,21.70
2018-12-31T06:37:41.632Z,22.30
2018-12-31T06:38:41.618Z,21.60
2018-12-31T06:39:41.636Z,19.40
2018-12-31T06:40:41.595Z,21.10
2018-12-31T06:41:41.583Z,22.10
2018-12-31T06:42:41.571Z,22.50
2018-12-31T06:43:41.560Z,21.20
2018-12-31T06:44:41.550Z,20.40
2018-12-31T06:45:41.567Z,20.60
2018-12-31T06:46:41.526Z,17.60
2018-12-31T06:47:41.514Z,18.20
2018-12-31T06:48:41.501Z,20.10
2018-12-31T06:49:41.494Z,22.40
2018-12-31T06:50:41.479Z,18.20
2018-12-31T06:51:41.531Z,20.40
2018-12-31T06:52:41.461Z,22.60
2018-12-31T06:53:41.447Z,19.20
2018-12-31T06:54:41.434Z,21.80
2018-12-31T06:55:41.425Z,18.90
2018-12-31T06:56:41.417Z,18.60
2018-12-31T06:57:41.419Z,20.10
2018-12-31T06:58:41.390Z,21.00
2018-12-31T06:59:41.380Z,20.20
2018-12-31T07:00:41.368Z,18.20
2018-12-31T07:01:41.361Z,20.40
2018-12-31T07:02:41.376Z,19.10
2018-12-31T07:03:41.334Z,21.00
2018-12-31T07:04:41.321Z,21.00
2018-12-31T07:05:41.312Z,19.70
2018-12-31T07:06:41.301Z,19.80
2018-12-31T07:07:41.291Z,20.50
2018-12-31T07:08:41.306Z,20.80
2018-12-31T07:09:41.279Z,20.10
2018-12-31T07:10:41.266Z,20.60
2018-12-31T07:11:41.245Z,22.80
2018-12-31T07:12:41.233Z,22.20
2018-12-31T07:13:41.232Z,22.40
2018-12-31T07:14:41.232Z,21.40
2018-12-31T07:15:41.198Z,19.60
2018-12-31T07:16:41.188Z,20.30
2018-12-31T07:17:41.175Z,21.60
2018-12-31T07:18:41.166Z,19.80
2018-12-31T07:19:41.183Z,20.60
2018-12-31T07:20:41.142Z,23.00
2018-12-31T07:21:41.149Z,22.10
2018-12-31T07:22:41.122Z,19.60
2018-12-31T07:23:41.109Z,25.70
2018-12-31T07:24:41.097Z,22.60
2018-12-31T07:25:41.119Z,19.70
2018-12-31T07:26:41.074Z,21.70
2018-12-31T07:27:41.069Z,19.50
2018-12-31T07:28:41.056Z,22.40
2018-12-31T07:29:41.041Z,21.70
2018-12-31T07:30:41.033Z,22.20
2018-12-31T07:31:41.049Z,20.00
2018-12-31T07:32:41.009Z,21.80
2018-12-31T07:33:40.996Z,20.50
2018-12-31T07:34:40.984Z,23.30
2018-12-31T07:35:40.972Z,21.10
2018-12-31T07:36:40.966Z,21.40
2018-12-31T07:37:40.970Z,21.20
2018-12-31T07:38:40.940Z,20.90
2018-12-31T07:39:40.929Z,21.10
2018-12-31T07:40:40.916Z,22.30
2018-12-31T07:41:40.907Z,20.80
2018-12-31T07:42:40.924Z,22.60
2018-12-31T07:43:40.884Z,24.40
2018-12-31T07:44:40.872Z,20.90
2018-12-31T07:45:40.867Z,22.90
2018-12-31T07:46:40.849Z,21.20
2018-12-31T07:47:40.845Z,21.70
2018-12-31T07:48:40.863Z,25.80
2018-12-31T07:49:40.821Z,21.80
2018-12-31T07:50:40.808Z,22.50
2018-12-31T07:51:40.794Z,21.50
2018-12-31T07:52:40.782Z,23.40
2018-12-31T07:53:40.773Z,23.30
2018-12-31T07:54:40.779Z,23.00
2018-12-31T07:55:40.748Z,24.90
2018-12-31T07:56:40.741Z,26.20
2018-12-31T07:57:42.140Z,25.00
2018-12-31T07:58:40.717Z,22.90
2018-12-31T07:59:40.733Z,23.70
2018-12-31T08:00:40.695Z,26.50
2018-12-31T08:01:40.682Z,25.00
2018-12-31T08:02:41.367Z,26.50
2018-12-31T08:03:40.658Z,29.90
2018-12-31T08:04:40.654Z,27.70
2018-12-31T08:05:40.665Z,23.00
2018-12-31T08:06:40.627Z,25.30
2018-12-31T08:07:40.617Z,24.20
2018-12-31T08:08:40.604Z,24.50
2018-12-31T08:09:40.591Z,23.10
2018-12-31T08:10:40.582Z,23.40
2018-12-31T08:11:40.587Z,23.40
2018-12-31T08:12:40.558Z,25.20
2018-12-31T08:13:40.551Z,25.60
2018-12-31T08:14:40.535Z,25.00
2018-12-31T08:15:40.525Z,26.10
2018-12-31T08:16:40.541Z,25.50
2018-12-31T08:17:40.504Z,24.70
2018-12-31T08:18:40.491Z,25.00
2018-12-31T08:19:40.480Z,23.70
2018-12-31T08:20:40.469Z,24.60
2018-12-31T08:21:40.462Z,25.70
2018-12-31T08:22:40.475Z,24.70
2018-12-31T08:23:40.435Z,25.00
2018-12-31T08:24:40.424Z,23.30
2018-12-31T08:25:40.411Z,24.70
2018-12-31T08:26:40.401Z,25.30
2018-12-31T08:27:40.389Z,25.50
2018-12-31T08:28:40.413Z,24.40
2018-12-31T08:29:40.367Z,24.90
2018-12-31T08:30:40.354Z,25.10
2018-12-31T08:31:40.343Z,27.20
2018-12-31T08:32:40.331Z,26.80
2018-12-31T08:33:40.321Z,25.40
2018-12-31T08:34:40.328Z,26.00
2018-12-31T08:35:40.301Z,26.20
2018-12-31T08:36:40.287Z,25.80
2018-12-31T08:37:40.274Z,24.60
2018-12-31T08:38:40.263Z,27.30
2018-12-31T08:39:40.291Z,29.30
2018-12-31T08:40:40.244Z,24.80
2018-12-31T08:41:40.229Z,30.60
2018-12-31T08:42:40.220Z,30.50
2018-12-31T08:43:40.206Z,30.40
2018-12-31T08:44:40.915Z,27.60
2018-12-31T08:45:40.213Z,28.60
2018-12-31T08:46:40.176Z,31.30
2018-12-31T08:47:40.162Z,32.60
2018-12-31T08:48:40.150Z,32.70
2018-12-31T08:49:40.139Z,31.10
2018-12-31T08:50:40.129Z,29.90
2018-12-31T08:51:40.139Z,32.30
2018-12-31T08:52:40.109Z,31.70
2018-12-31T08:53:40.095Z,31.30
2018-12-31T08:54:40.083Z,32.00
2018-12-31T08:55:40.072Z,33.80
2018-12-31T08:56:40.087Z,30.40
2018-12-31T08:57:40.051Z,34.30
2018-12-31T08:58:40.036Z,30.60
2018-12-31T08:59:40.026Z,29.80
2018-12-31T09:00:40.014Z,31.50
2018-12-31T09:01:40.004Z,32.00
2018-12-31T09:02:40.025Z,33.00
2018-12-31T09:03:39.981Z,30.90
2018-12-31T09:04:39.972Z,33.30
2018-12-31T09:05:39.962Z,33.70
2018-12-31T09:06:39.948Z,33.30
2018-12-31T09:07:39.937Z,32.00
2018-12-31T09:08:39.959Z,33.40
2018-12-31T09:09:39.915Z,33.00
2018-12-31T09:10:39.902Z,32.80
2018-12-31T09:11:39.895Z,33.30
2018-12-31T09:12:39.880Z,33.70
2018-12-31T09:13:39.870Z,31.40
2018-12-31T09:14:39.899Z,35.20
2018-12-31T09:15:39.877Z,33.80
2018-12-31T09:16:39.864Z,34.90
2018-12-31T09:17:40.377Z,35.80
2018-12-31T09:18:39.813Z,34.90
2018-12-31T09:19:39.833Z,35.00
2018-12-31T09:20:39.790Z,34.30
2018-12-31T09:21:39.779Z,34.50
2018-12-31T09:22:39.768Z,34.00
2018-12-31T09:23:39.760Z,35.80
2018-12-31T09:24:44.602Z,33.70
2018-12-31T09:25:40.763Z,34.30
2018-12-31T09:26:39.725Z,35.30
2018-12-31T09:27:39.712Z,36.20
2018-12-31T09:28:39.701Z,35.60
2018-12-31T09:29:39.693Z,36.10
2018-12-31T09:30:39.678Z,33.80
2018-12-31T09:31:39.685Z,34.90
2018-12-31T09:32:39.654Z,36.10
2018-12-31T09:33:39.644Z,36.80
2018-12-31T09:34:39.632Z,37.40
2018-12-31T09:35:39.621Z,36.10
2018-12-31T09:36:39.639Z,40.20
2018-12-31T09:37:39.622Z,39.90
2018-12-31T09:38:40.376Z,37.00
2018-12-31T09:39:39.575Z,39.10
2018-12-31T09:40:39.573Z,37.70
2018-12-31T09:41:39.554Z,34.70
2018-12-31T09:42:39.575Z,34.90
2018-12-31T09:43:39.531Z,32.80
2018-12-31T09:44:39.523Z,35.90
2018-12-31T09:45:39.509Z,34.90
2018-12-31T09:46:39.504Z,36.60
2018-12-31T09:47:39.487Z,32.00
2018-12-31T09:48:39.494Z,34.70
2018-12-31T09:49:39.466Z,34.40
2018-12-31T09:50:39.453Z,33.90
2018-12-31T09:51:39.441Z,32.30
2018-12-31T09:52:39.429Z,33.90
2018-12-31T09:53:39.452Z,32.10
2018-12-31T09:54:39.408Z,31.60
2018-12-31T09:55:47.935Z,32.60
2018-12-31T09:56:48.975Z,33.00
2018-12-31T09:57:39.377Z,33.70
2018-12-31T09:58:39.364Z,33.70
2018-12-31T09:59:39.380Z,32.80
2018-12-31T10:00:48.509Z,32.70
2018-12-31T10:01:47.545Z,34.10
2018-12-31T10:02:49.083Z,32.90
2018-12-31T10:03:39.310Z,32.70
2018-12-31T10:04:39.295Z,32.70
2018-12-31T10:05:39.322Z,31.40
2018-12-31T10:06:39.274Z,34.80
2018-12-31T10:07:39.265Z,33.80
2018-12-31T10:08:39.275Z,34.20
2018-12-31T10:09:39.242Z,34.70
2018-12-31T10:10:39.229Z,33.70
2018-12-31T10:11:39.234Z,34.10
2018-12-31T10:12:39.205Z,32.90
2018-12-31T10:13:39.194Z,30.30
2018-12-31T10:14:39.184Z,34.20
2018-12-31T10:15:39.175Z,32.80
2018-12-31T10:16:39.196Z,35.80
2018-12-31T10:17:39.151Z,34.90
2018-12-31T10:18:39.137Z,35.50
2018-12-31T10:19:39.125Z,32.90
2018-12-31T10:20:39.116Z,32.40
2018-12-31T10:21:41.099Z,31.20
2018-12-31T10:22:39.121Z,32.40
2018-12-31T10:23:39.082Z,31.50
2018-12-31T10:24:39.072Z,35.50
2018-12-31T10:25:39.063Z,37.80
2018-12-31T10:26:39.047Z,33.70
2018-12-31T10:27:39.037Z,36.80
2018-12-31T10:28:39.048Z,36.40
2018-12-31T10:29:39.013Z,33.50
2018-12-31T10:30:39.002Z,36.60
2018-12-31T10:31:38.992Z,33.10
2018-12-31T10:32:38.982Z,36.40
2018-12-31T10:33:38.999Z,38.20
2018-12-31T10:34:38.959Z,36.70
2018-12-31T10:35:38.948Z,36.10
2018-12-31T10:36:38.935Z,33.70
2018-12-31T10:37:38.928Z,32.60
2018-12-31T10:38:38.912Z,35.50
2018-12-31T10:39:38.931Z,33.50
2018-12-31T10:40:38.890Z,34.70
2018-12-31T10:41:38.884Z,34.60
2018-12-31T10:42:38.868Z,33.90
2018-12-31T10:43:38.861Z,36.60
2018-12-31T10:44:38.845Z,38.00
2018-12-31T10:45:38.863Z,38.10
2018-12-31T10:46:38.829Z,35.10
2018-12-31T10:47:38.811Z,36.30
2018-12-31T10:48:38.800Z,37.00
2018-12-31T10:49:38.791Z,38.40
2018-12-31T10:50:38.775Z,33.30
2018-12-31T10:51:38.800Z,34.70
2018-12-31T10:52:38.753Z,34.20
2018-12-31T10:53:38.743Z,36.40
2018-12-31T10:54:38.732Z,37.40
2018-12-31T10:55:38.722Z,38.40
2018-12-31T10:56:38.707Z,36.00
2018-12-31T10:57:38.730Z,37.90
2018-12-31T10:58:38.689Z,37.60
2018-12-31T10:59:38.675Z,38.70
2018-12-31T11:00:38.665Z,35.30
2018-12-31T11:01:38.657Z,38.20
2018-12-31T11:02:38.642Z,42.50
2018-12-31T11:03:38.649Z,38.30
2018-12-31T11:04:38.617Z,40.70
2018-12-31T11:05:38.608Z,45.20
2018-12-31T11:06:38.595Z,45.00
2018-12-31T11:07:38.583Z,45.10
2018-12-31T11:08:38.606Z,48.30
2018-12-31T11:09:38.565Z,46.90
2018-12-31T11:10:38.551Z,46.70
2018-12-31T11:11:38.544Z,51.10
2018-12-31T11:12:38.526Z,50.30
2018-12-31T11:13:38.515Z,51.50
2018-12-31T11:14:38.535Z,50.40
2018-12-31T11:15:38.493Z,51.90
2018-12-31T11:16:38.485Z,47.80
2018-12-31T11:17:38.469Z,48.60
2018-12-31T11:18:38.462Z,50.00
2018-12-31T11:19:38.448Z,52.60
2018-12-31T11:20:38.454Z,48.40
2018-12-31T11:21:38.425Z,53.10
2018-12-31T11:22:38.418Z,52.50
2018-12-31T11:23:38.405Z,49.50
2018-12-31T11:24:38.391Z,48.30
2018-12-31T11:25:38.413Z,52.70
2018-12-31T11:26:38.369Z,47.00
2018-12-31T11:27:39.094Z,48.00
2018-12-31T11:28:38.345Z,43.20
2018-12-31T11:29:38.334Z,45.10
2018-12-31T11:30:38.321Z,43.70
2018-12-31T11:31:38.344Z,42.70
2018-12-31T11:32:38.303Z,40.60
2018-12-31T11:33:38.288Z,40.30
2018-12-31T11:34:38.281Z,41.30
2018-12-31T11:35:38.266Z,44.00
2018-12-31T11:36:38.261Z,37.30
2018-12-31T11:37:38.276Z,38.10
2018-12-31T11:38:38.232Z,40.30
2018-12-31T11:39:38.220Z,37.30
2018-12-31T11:40:38.213Z,41.10
2018-12-31T11:41:38.200Z,39.10
2018-12-31T11:42:38.188Z,37.60
2018-12-31T11:43:38.200Z,38.20
2018-12-31T11:44:38.166Z,36.30
2018-12-31T11:45:38.154Z,35.90
2018-12-31T11:46:38.147Z,38.00
2018-12-31T11:47:38.131Z,38.20
2018-12-31T11:48:38.148Z,36.00
2018-12-31T11:49:38.107Z,38.20
2018-12-31T11:50:38.096Z,37.30
2018-12-31T11:51:38.104Z,35.80
2018-12-31T11:52:38.068Z,37.00
2018-12-31T11:53:38.065Z,37.60
2018-12-31T11:54:39.387Z,35.90
2018-12-31T11:55:38.038Z,35.60
2018-12-31T11:56:38.028Z,37.80
2018-12-31T11:57:38.018Z,33.80
2018-12-31T11:58:38.004Z,35.50
2018-12-31T11:59:37.994Z,37.80
2018-12-31T12:00:38.002Z,34.60
2018-12-31T12:01:38.004Z,35.90
2018-12-31T12:02:38.956Z,38.00
2018-12-31T12:03:37.950Z,32.10
2018-12-31T12:04:37.938Z,36.60
2018-12-31T12:05:37.959Z,34.10
2018-12-31T12:06:37.917Z,34.50
2018-12-31T12:07:37.908Z,34.60
2018-12-31T12:08:37.891Z,36.10
2018-12-31T12:09:37.879Z,37.50
2018-12-31T12:10:37.869Z,35.70
2018-12-31T12:11:37.887Z,38.60
2018-12-31T12:12:37.859Z,37.60
2018-12-31T12:13:37.846Z,37.70
2018-12-31T12:14:37.822Z,35.40
2018-12-31T12:15:37.846Z,35.10
2018-12-31T12:16:37.800Z,37.00
2018-12-31T12:17:37.816Z,38.90
2018-12-31T12:18:37.778Z,35.40
2018-12-31T12:19:37.774Z,35.20
2018-12-31T12:20:37.755Z,36.00
2018-12-31T12:21:37.743Z,35.70
2018-12-31T12:22:37.732Z,35.40
2018-12-31T12:23:37.742Z,36.40
2018-12-31T12:24:37.711Z,36.70
2018-12-31T12:25:37.698Z,35.40
2018-12-31T12:26:37.685Z,35.30
2018-12-31T12:27:37.677Z,35.50
2018-12-31T12:28:37.692Z,32.30
2018-12-31T12:29:37.653Z,32.80
2018-12-31T12:30:37.641Z,35.40
2018-12-31T12:31:37.653Z,36.10
2018-12-31T12:32:37.667Z,38.60
2018-12-31T12:33:38.509Z,36.90
2018-12-31T12:34:37.627Z,35.70
2018-12-31T12:35:37.586Z,39.50
2018-12-31T12:36:37.574Z,35.10
2018-12-31T12:37:37.562Z,32.40
2018-12-31T12:38:37.551Z,34.10
2018-12-31T12:39:37.553Z,32.90
2018-12-31T12:40:37.548Z,33.50
2018-12-31T12:41:37.519Z,34.90
2018-12-31T12:42:37.512Z,34.40
2018-12-31T12:43:37.495Z,33.60
2018-12-31T12:44:37.483Z,33.10
2018-12-31T12:45:37.503Z,33.50
2018-12-31T12:46:37.492Z,35.70
2018-12-31T12:47:37.450Z,34.20
2018-12-31T12:48:37.440Z,34.70
2018-12-31T12:49:37.427Z,34.00
2018-12-31T12:50:37.429Z,35.30
2018-12-31T12:51:37.429Z,34.00
2018-12-31T12:52:37.393Z,34.70
2018-12-31T12:53:37.381Z,34.30
2018-12-31T12:54:37.373Z,35.40